sensor_id;sensor_type;location;lat;lon;timestamp;P1;P4;P2;P0;N10;N4;N25;N1;N05;TS
78703;SPS30;68034;51.966;5.676;2023-12-20T00:00:04;3.3;3.2;3.1;2.9;;;;1.0;31.0;
78703;SPS30;68034;51.966;5.676;2023-12-20T00:02:34;3.1;3.0;2.9;2.6;;;;1.0;29.0;
78703;SPS30;68034;51.966;5.676;2023-12-20T00:05:12;3.3;3.2;3.1;2.8;;;;1.0;26.0;
78703;SPS30;68034;51.966;5.676;2023-12-20T00:07:44;3.6;3.6;3.4;3.1;;;;1.0;26.0;
78703;SPS30;68034;51.966;5.676;2023-12-20T00:10:12;3.6;3.5;3.3;3.0;;;;1.0;28.0;
78703;SPS30;68034;51.966;5.676;2023-12-20T00:12:43;3.2;3.2;3.0;2.7;;;;1.0;29.0;
78703;SPS30;68034;51.966;5.676;2023-12-20T00:15:12;3.6;3.5;3.4;3.0;;;;1.0;27.0;
78703;SPS30;68034;51.966;5.676;2023-12-20T00:17:41;3.6;3.6;3.4;3.1;;;;1.0;27.0;
78703;SPS30;68034;51.966;5.676;2023-12-20T00:20:10;3.9;3.8;3.7;3.4;;;;1.0;27.0;
78703;SPS30;68034;51.966;5.676;2023-12-20T00:22:39;4.1;4.0;3.9;3.6;;;;1.0;27.0;
78703;SPS30;68034;51.966;5.676;2023-12-20T00:25:07;4.3;4.3;4.2;3.8;;;;1.0;25.0;
78703;SPS30;68034;51.966;5.676;2023-12-20T00:27:38;7.3;7.3;7.2;6.8;;;;1.0;28.0;
78703;SPS30;68034;51.966;5.676;2023-12-20T00:30:08;7.7;7.7;7.6;7.2;;;;1.0;33.0;
78703;SPS30;68034;51.966;5.676;2023-12-20T00:32:37;6.1;6.1;6.0;5.7;;;;1.0;35.0;
78703;SPS30;68034;51.966;5.676;2023-12-20T00:35:11;3.3;3.3;3.3;3.1;;;;1.0;35.0;
78703;SPS30;68034;51.966;5.676;2023-12-20T00:37:40;3.7;3.7;3.6;3.4;;;;1.0;33.0;
78703;SPS30;68034;51.966;5.676;2023-12-20T00:40:09;5.2;5.1;5.1;4.7;;;;1.0;30.0;
78703;SPS30;68034;51.966;5.676;2023-12-20T00:42:38;3.8;3.7;3.7;3.4;;;;1.0;29.0;
78703;SPS30;68034;51.966;5.676;2023-12-20T00:45:08;3.2;3.2;3.1;2.9;;;;1.0;29.0;
78703;SPS30;68034;51.966;5.676;2023-12-20T00:47:36;3.3;3.2;3.2;2.9;;;;1.0;30.0;
78703;SPS30;68034;51.966;5.676;2023-12-20T00:50:06;4.6;4.6;4.5;4.1;;;;1.0;31.0;
78703;SPS30;68034;51.966;5.676;2023-12-20T00:52:35;3.1;3.1;2.9;2.6;;;;1.0;30.0;
78703;SPS30;68034;51.966;5.676;2023-12-20T00:55:04;3.3;3.2;3.0;2.6;;;;1.0;30.0;
78703;SPS30;68034;51.966;5.676;2023-12-20T00:57:33;4.0;3.9;3.8;3.5;;;;1.0;36.0;
78703;SPS30;68034;51.966;5.676;2023-12-20T01:00:03;4.1;4.0;3.8;3.4;;;;1.0;35.0;
78703;SPS30;68034;51.966;5.676;2023-12-20T01:02:32;3.6;3.5;3.3;3.0;;;;1.0;33.0;
78703;SPS30;68034;51.966;5.676;2023-12-20T01:05:00;3.4;3.3;3.2;2.9;;;;1.0;33.0;
78703;SPS30;68034;51.966;5.676;2023-12-20T01:07:29;3.2;3.1;3.0;2.7;;;;1.0;33.0;
78703;SPS30;68034;51.966;5.676;2023-12-20T01:09:58;3.6;3.5;3.4;3.0;;;;1.0;33.0;
78703;SPS30;68034;51.966;5.676;2023-12-20T01:12:28;3.4;3.3;3.1;2.8;;;;1.0;31.0;
78703;SPS30;68034;51.966;5.676;2023-12-20T01:14:57;3.3;3.3;3.1;2.8;;;;1.0;31.0;
78703;SPS30;68034;51.966;5.676;2023-12-20T01:17:26;3.0;2.9;2.8;2.5;;;;1.0;32.0;
78703;SPS30;68034;51.966;5.676;2023-12-20T01:19:55;3.0;2.9;2.8;2.5;;;;1.0;34.0;
78703;SPS30;68034;51.966;5.676;2023-12-20T01:22:24;3.0;3.0;2.8;2.5;;;;1.0;33.0;
78703;SPS30;68034;51.966;5.676;2023-12-20T01:24:52;3.4;3.3;3.1;2.7;;;;1.0;32.0;
78703;SPS30;68034;51.966;5.676;2023-12-20T01:27:21;2.8;2.8;2.6;2.2;;;;1.0;32.0;
78703;SPS30;68034;51.966;5.676;2023-12-20T01:29:50;3.2;3.1;2.9;2.5;;;;2.0;32.0;
78703;SPS30;68034;51.966;5.676;2023-12-20T01:32:21;3.4;3.3;3.0;2.6;;;;2.0;31.0;
78703;SPS30;68034;51.966;5.676;2023-12-20T01:34:50;3.1;3.0;2.8;2.4;;;;2.0;32.0;
78703;SPS30;68034;51.966;5.676;2023-12-20T01:37:18;2.7;2.6;2.4;2.1;;;;2.0;32.0;
78703;SPS30;68034;51.966;5.676;2023-12-20T01:39:50;3.4;3.3;3.0;2.5;;;;2.0;31.0;
78703;SPS30;68034;51.966;5.676;2023-12-20T01:42:18;3.2;3.0;2.8;2.3;;;;2.0;31.0;
78703;SPS30;68034;51.966;5.676;2023-12-20T01:44:48;3.5;3.4;3.0;2.4;;;;2.0;31.0;
78703;SPS30;68034;51.966;5.676;2023-12-20T01:47:17;3.5;3.3;2.8;2.2;;;;2.0;31.0;
78703;SPS30;68034;51.966;5.676;2023-12-20T01:49:45;3.6;3.4;2.9;2.2;;;;2.0;31.0;
78703;SPS30;68034;51.966;5.676;2023-12-20T01:52:14;3.7;3.4;2.8;2.1;;;;2.0;30.0;
78703;SPS30;68034;51.966;5.676;2023-12-20T01:54:50;4.4;4.1;3.4;2.3;;;;2.0;31.0;
78703;SPS30;68034;51.966;5.676;2023-12-20T01:57:30;5.0;4.6;3.8;2.8;;;;2.0;33.0;
78703;SPS30;68034;51.966;5.676;2023-12-20T02:00:01;4.5;4.2;3.6;2.6;;;;2.0;36.0;
78703;SPS30;68034;51.966;5.676;2023-12-20T02:02:44;4.1;3.8;3.2;2.3;;;;2.0;39.0;
78703;SPS30;68034;51.966;5.676;2023-12-20T02:05:21;4.6;4.3;3.6;2.7;;;;2.0;43.0;
78703;SPS30;68034;51.966;5.676;2023-12-20T02:08:01;4.6;4.3;3.6;2.6;;;;2.0;44.0;
78703;SPS30;68034;51.966;5.676;2023-12-20T02:10:34;4.3;4.0;3.3;2.4;;;;2.0;48.0;
78703;SPS30;68034;51.966;5.676;2023-12-20T02:13:03;4.7;4.3;3.6;2.5;;;;2.0;53.0;
78703;SPS30;68034;51.966;5.676;2023-12-20T02:15:32;3.8;3.6;3.0;2.2;;;;2.0;52.0;
78703;SPS30;68034;51.966;5.676;2023-12-20T02:18:03;3.8;3.6;3.0;2.3;;;;2.0;51.0;
78703;SPS30;68034;51.966;5.676;2023-12-20T02:20:33;3.9;3.7;3.2;2.4;;;;2.0;51.0;
78703;SPS30;68034;51.966;5.676;2023-12-20T02:23:01;4.3;4.0;3.4;2.6;;;;2.0;50.0;
78703;SPS30;68034;51.966;5.676;2023-12-20T02:25:30;3.4;3.1;2.7;2.0;;;;1.0;50.0;
78703;SPS30;68034;51.966;5.676;2023-12-20T02:27:59;4.4;4.1;3.5;2.7;;;;1.0;48.0;
78703;SPS30;68034;51.966;5.676;2023-12-20T02:30:31;4.0;3.7;3.2;2.4;;;;1.0;48.0;
78703;SPS30;68034;51.966;5.676;2023-12-20T02:33:00;3.7;3.4;2.9;2.1;;;;1.0;47.0;
78703;SPS30;68034;51.966;5.676;2023-12-20T02:35:32;4.2;3.9;3.3;2.4;;;;1.0;48.0;
78703;SPS30;68034;51.966;5.676;2023-12-20T02:38:00;5.0;4.6;3.8;2.7;;;;1.0;48.0;
78703;SPS30;68034;51.966;5.676;2023-12-20T02:40:29;3.9;3.7;3.1;2.3;;;;1.0;49.0;
78703;SPS30;68034;51.966;5.676;2023-12-20T02:42:57;3.7;3.5;2.9;2.2;;;;1.0;48.0;
78703;SPS30;68034;51.966;5.676;2023-12-20T02:45:26;4.0;3.8;3.2;2.4;;;;1.0;48.0;
78703;SPS30;68034;51.966;5.676;2023-12-20T02:47:55;4.3;4.0;3.3;2.5;;;;1.0;48.0;
78703;SPS30;68034;51.966;5.676;2023-12-20T02:50:24;4.6;4.3;3.6;2.6;;;;1.0;45.0;
78703;SPS30;68034;51.966;5.676;2023-12-20T02:52:53;3.3;3.0;2.6;1.9;;;;1.0;45.0;
78703;SPS30;68034;51.966;5.676;2023-12-20T02:55:22;4.2;3.9;3.3;2.5;;;;1.0;48.0;
78703;SPS30;68034;51.966;5.676;2023-12-20T02:57:50;4.2;3.9;3.3;2.5;;;;1.0;48.0;
78703;SPS30;68034;51.966;5.676;2023-12-20T03:00:21;3.6;3.4;3.0;2.3;;;;1.0;46.0;
78703;SPS30;68034;51.966;5.676;2023-12-20T03:02:50;3.9;3.7;3.2;2.5;;;;1.0;45.0;
78703;SPS30;68034;51.966;5.676;2023-12-20T03:05:18;3.5;3.3;2.9;2.3;;;;1.0;44.0;
78703;SPS30;68034;51.966;5.676;2023-12-20T03:07:47;4.3;4.0;3.5;2.7;;;;1.0;46.0;
78703;SPS30;68034;51.966;5.676;2023-12-20T03:10:16;4.1;3.9;3.3;2.6;;;;2.0;46.0;
78703;SPS30;68034;51.966;5.676;2023-12-20T03:12:46;4.6;4.3;3.7;2.8;;;;2.0;46.0;
78703;SPS30;68034;51.966;5.676;2023-12-20T03:15:14;3.9;3.7;3.2;2.5;;;;2.0;46.0;
78703;SPS30;68034;51.966;5.676;2023-12-20T03:17:43;3.4;3.2;2.8;2.2;;;;2.0;44.0;
78703;SPS30;68034;51.966;5.676;2023-12-20T03:20:12;4.4;4.2;3.6;2.8;;;;2.0;42.0;
78703;SPS30;68034;51.966;5.676;2023-12-20T03:22:40;5.4;5.1;4.4;3.4;;;;2.0;43.0;
78703;SPS30;68034;51.966;5.676;2023-12-20T03:25:11;5.0;4.7;4.1;3.2;;;;2.0;43.0;
78703;SPS30;68034;51.966;5.676;2023-12-20T03:27:42;4.1;3.9;3.5;2.8;;;;2.0;44.0;
78703;SPS30;68034;51.966;5.676;2023-12-20T03:30:11;4.3;4.0;3.5;2.7;;;;2.0;44.0;
78703;SPS30;68034;51.966;5.676;2023-12-20T03:32:40;5.3;5.0;4.3;3.4;;;;2.0;45.0;
78703;SPS30;68034;51.966;5.676;2023-12-20T03:35:09;4.5;4.2;3.7;3.0;;;;2.0;45.0;
78703;SPS30;68034;51.966;5.676;2023-12-20T03:37:37;4.5;4.2;3.7;2.8;;;;2.0;45.0;
78703;SPS30;68034;51.966;5.676;2023-12-20T03:40:08;5.6;5.3;4.5;3.4;;;;2.0;46.0;
78703;SPS30;68034;51.966;5.676;2023-12-20T03:42:37;4.1;3.8;3.3;2.4;;;;2.0;48.0;
78703;SPS30;68034;51.966;5.676;2023-12-20T03:45:07;4.8;4.5;3.9;2.9;;;;2.0;48.0;
78703;SPS30;68034;51.966;5.676;2023-12-20T03:47:36;4.6;4.3;3.5;2.5;;;;2.0;48.0;
78703;SPS30;68034;51.966;5.676;2023-12-20T03:50:04;6.4;5.8;4.7;3.3;;;;2.0;47.0;
78703;SPS30;68034;51.966;5.676;2023-12-20T03:52:33;5.5;5.0;4.2;2.9;;;;2.0;47.0;
78703;SPS30;68034;51.966;5.676;2023-12-20T03:55:02;5.5;5.1;4.3;3.1;;;;2.0;46.0;
78703;SPS30;68034;51.966;5.676;2023-12-20T03:57:31;4.8;4.5;3.8;2.8;;;;2.0;46.0;
78703;SPS30;68034;51.966;5.676;2023-12-20T04:00:00;5.9;5.5;4.6;3.4;;;;2.0;46.0;
78703;SPS30;68034;51.966;5.676;2023-12-20T04:02:30;4.2;3.9;3.2;2.2;;;;2.0;46.0;
78703;SPS30;68034;51.966;5.676;2023-12-20T04:04:58;4.5;4.1;3.4;2.4;;;;2.0;46.0;
78703;SPS30;68034;51.966;5.676;2023-12-20T04:07:27;5.8;5.4;4.4;3.1;;;;2.0;46.0;
78703;SPS30;68034;51.966;5.676;2023-12-20T04:09:56;5.6;5.1;4.1;2.8;;;;2.0;46.0;
78703;SPS30;68034;51.966;5.676;2023-12-20T04:12:26;5.8;5.3;4.3;2.9;;;;2.0;46.0;
78703;SPS30;68034;51.966;5.676;2023-12-20T04:15:01;5.5;5.1;4.2;2.9;;;;2.0;48.0;
78703;SPS30;68034;51.966;5.676;2023-12-20T04:17:36;5.0;4.6;3.8;2.7;;;;2.0;55.0;
78703;SPS30;68034;51.966;5.676;2023-12-20T04:20:05;4.9;4.5;3.7;2.6;;;;2.0;52.0;
78703;SPS30;68034;51.966;5.676;2023-12-20T04:22:34;5.4;5.0;4.1;2.8;;;;2.0;48.0;
78703;SPS30;68034;51.966;5.676;2023-12-20T04:25:03;6.0;5.5;4.5;3.2;;;;2.0;46.0;
78703;SPS30;68034;51.966;5.676;2023-12-20T04:27:32;5.0;4.5;3.7;2.5;;;;2.0;47.0;
78703;SPS30;68034;51.966;5.676;2023-12-20T04:30:00;4.8;4.4;3.6;2.4;;;;2.0;46.0;
78703;SPS30;68034;51.966;5.676;2023-12-20T04:32:30;4.4;4.1;3.3;2.3;;;;2.0;45.0;
78703;SPS30;68034;51.966;5.676;2023-12-20T04:34:58;5.8;5.3;4.3;3.0;;;;2.0;43.0;
78703;SPS30;68034;51.966;5.676;2023-12-20T04:37:27;5.9;5.4;4.4;2.9;;;;2.0;41.0;
78703;SPS30;68034;51.966;5.676;2023-12-20T04:39:55;5.6;5.1;4.0;2.6;;;;2.0;41.0;
78703;SPS30;68034;51.966;5.676;2023-12-20T04:42:24;6.0;5.5;4.4;2.8;;;;2.0;41.0;
78703;SPS30;68034;51.966;5.676;2023-12-20T04:44:53;6.1;5.5;4.3;2.8;;;;2.0;41.0;
78703;SPS30;68034;51.966;5.676;2023-12-20T04:47:21;5.7;5.2;4.2;2.7;;;;2.0;41.0;
78703;SPS30;68034;51.966;5.676;2023-12-20T04:49:50;4.6;4.2;3.3;2.2;;;;2.0;39.0;
78703;SPS30;68034;51.966;5.676;2023-12-20T04:52:19;5.8;5.4;4.4;3.0;;;;2.0;40.0;
78703;SPS30;68034;51.966;5.676;2023-12-20T04:54:47;5.4;5.0;4.0;2.7;;;;2.0;42.0;
78703;SPS30;68034;51.966;5.676;2023-12-20T04:57:17;6.0;5.5;4.4;2.9;;;;2.0;41.0;
78703;SPS30;68034;51.966;5.676;2023-12-20T04:59:46;5.5;5.0;3.9;2.5;;;;2.0;39.0;
78703;SPS30;68034;51.966;5.676;2023-12-20T05:02:15;6.3;5.7;4.4;2.8;;;;2.0;38.0;
78703;SPS30;68034;51.966;5.676;2023-12-20T05:04:43;5.7;5.2;4.0;2.6;;;;2.0;37.0;
78703;SPS30;68034;51.966;5.676;2023-12-20T05:07:12;5.8;5.2;4.1;2.6;;;;2.0;37.0;
78703;SPS30;68034;51.966;5.676;2023-12-20T05:09:41;7.0;6.4;5.0;3.2;;;;2.0;42.0;
78703;SPS30;68034;51.966;5.676;2023-12-20T05:12:10;6.4;5.8;4.5;2.9;;;;2.0;41.0;
78703;SPS30;68034;51.966;5.676;2023-12-20T05:14:38;6.5;5.9;4.7;3.0;;;;2.0;39.0;
78703;SPS30;68034;51.966;5.676;2023-12-20T05:17:07;6.2;5.7;4.5;2.9;;;;2.0;33.0;
78703;SPS30;68034;51.966;5.676;2023-12-20T05:19:35;6.4;5.8;4.5;2.8;;;;2.0;33.0;
78703;SPS30;68034;51.966;5.676;2023-12-20T05:22:04;7.5;6.8;5.2;3.1;;;;2.0;34.0;
78703;SPS30;68034;51.966;5.676;2023-12-20T05:24:33;6.6;5.9;4.5;2.7;;;;2.0;35.0;
78703;SPS30;68034;51.966;5.676;2023-12-20T05:27:01;6.9;6.2;4.8;3.0;;;;2.0;36.0;
78703;SPS30;68034;51.966;5.676;2023-12-20T05:29:30;5.6;5.1;4.0;2.6;;;;2.0;38.0;
78703;SPS30;68034;51.966;5.676;2023-12-20T05:31:59;5.8;5.3;4.2;2.7;;;;2.0;40.0;
78703;SPS30;68034;51.966;5.676;2023-12-20T05:34:31;5.2;4.8;3.8;2.5;;;;2.0;45.0;
78703;SPS30;68034;51.966;5.676;2023-12-20T05:36:59;5.9;5.4;4.2;2.6;;;;2.0;45.0;
78703;SPS30;68034;51.966;5.676;2023-12-20T05:39:29;4.9;4.5;3.6;2.3;;;;2.0;46.0;
78703;SPS30;68034;51.966;5.676;2023-12-20T05:41:59;6.7;6.1;4.8;3.2;;;;2.0;46.0;
78703;SPS30;68034;51.966;5.676;2023-12-20T05:44:28;5.9;5.3;4.1;2.6;;;;2.0;47.0;
78703;SPS30;68034;51.966;5.676;2023-12-20T05:46:56;7.7;7.0;5.5;3.5;;;;2.0;45.0;
78703;SPS30;68034;51.966;5.676;2023-12-20T05:49:25;6.1;5.5;4.3;2.7;;;;2.0;43.0;
78703;SPS30;68034;51.966;5.676;2023-12-20T05:51:54;6.5;6.0;4.7;3.1;;;;2.0;42.0;
78703;SPS30;68034;51.966;5.676;2023-12-20T05:54:22;5.3;4.9;3.9;2.5;;;;2.0;41.0;
78703;SPS30;68034;51.966;5.676;2023-12-20T05:56:51;5.4;4.9;4.0;2.7;;;;2.0;41.0;
78703;SPS30;68034;51.966;5.676;2023-12-20T05:59:21;6.4;5.9;4.7;3.2;;;;2.0;42.0;
78703;SPS30;68034;51.966;5.676;2023-12-20T06:01:50;5.8;5.3;4.2;2.8;;;;2.0;43.0;
78703;SPS30;68034;51.966;5.676;2023-12-20T06:04:19;5.4;4.9;3.9;2.6;;;;2.0;43.0;
78703;SPS30;68034;51.966;5.676;2023-12-20T06:06:47;5.8;5.3;4.2;2.7;;;;2.0;44.0;
78703;SPS30;68034;51.966;5.676;2023-12-20T06:09:16;6.8;6.2;5.0;3.3;;;;2.0;47.0;
78703;SPS30;68034;51.966;5.676;2023-12-20T06:11:45;6.1;5.6;4.4;2.8;;;;2.0;45.0;
78703;SPS30;68034;51.966;5.676;2023-12-20T06:14:17;6.1;5.6;4.3;2.7;;;;2.0;45.0;
78703;SPS30;68034;51.966;5.676;2023-12-20T06:16:51;7.0;6.4;5.0;3.3;;;;2.0;46.0;
78703;SPS30;68034;51.966;5.676;2023-12-20T06:19:20;6.0;5.5;4.4;2.8;;;;2.0;47.0;
78703;SPS30;68034;51.966;5.676;2023-12-20T06:21:48;7.4;6.7;5.3;3.5;;;;2.0;51.0;
78703;SPS30;68034;51.966;5.676;2023-12-20T06:24:24;6.0;5.4;4.3;2.8;;;;2.0;56.0;
78703;SPS30;68034;51.966;5.676;2023-12-20T06:26:59;5.4;5.0;4.0;2.7;;;;2.0;63.0;
78703;SPS30;68034;51.966;5.676;2023-12-20T06:29:32;5.4;4.9;4.0;2.7;;;;2.0;64.0;
78703;SPS30;68034;51.966;5.676;2023-12-20T06:32:01;6.0;5.5;4.4;3.0;;;;2.0;66.0;
78703;SPS30;68034;51.966;5.676;2023-12-20T06:34:30;5.5;5.0;4.1;2.8;;;;2.0;66.0;
78703;SPS30;68034;51.966;5.676;2023-12-20T06:36:59;5.9;5.4;4.3;2.8;;;;2.0;86.0;
78703;SPS30;68034;51.966;5.676;2023-12-20T06:39:27;5.8;5.3;4.2;2.7;;;;2.0;77.0;
78703;SPS30;68034;51.966;5.676;2023-12-20T06:41:57;5.9;5.4;4.4;2.9;;;;2.0;73.0;
78703;SPS30;68034;51.966;5.676;2023-12-20T06:44:25;6.4;5.9;4.7;3.2;;;;2.0;69.0;
78703;SPS30;68034;51.966;5.676;2023-12-20T06:46:54;5.9;5.4;4.4;3.0;;;;2.0;71.0;
78703;SPS30;68034;51.966;5.676;2023-12-20T06:49:23;6.8;6.3;5.1;3.5;;;;2.0;78.0;
78703;SPS30;68034;51.966;5.676;2023-12-20T06:51:51;7.6;7.0;5.6;3.7;;;;2.0;83.0;
78703;SPS30;68034;51.966;5.676;2023-12-20T06:54:20;5.8;5.4;4.4;3.0;;;;2.0;87.0;
78703;SPS30;68034;51.966;5.676;2023-12-20T06:56:49;6.4;5.9;4.8;3.3;;;;2.0;91.0;
78703;SPS30;68034;51.966;5.676;2023-12-20T06:59:17;5.9;5.5;4.5;3.1;;;;2.0;91.0;
78703;SPS30;68034;51.966;5.676;2023-12-20T07:01:49;6.7;6.2;5.1;3.6;;;;2.0;89.0;
78703;SPS30;68034;51.966;5.676;2023-12-20T07:04:17;6.4;5.9;4.7;3.1;;;;2.0;88.0;
78703;SPS30;68034;51.966;5.676;2023-12-20T07:06:48;6.2;5.7;4.7;3.3;;;;2.0;93.0;
78703;SPS30;68034;51.966;5.676;2023-12-20T07:09:18;6.4;5.9;4.9;3.5;;;;2.0;94.0;
78703;SPS30;68034;51.966;5.676;2023-12-20T07:11:46;6.1;5.6;4.6;3.2;;;;2.0;94.0;
78703;SPS30;68034;51.966;5.676;2023-12-20T07:14:15;7.7;7.1;5.7;3.7;;;;2.0;89.0;
78703;SPS30;68034;51.966;5.676;2023-12-20T07:16:44;6.8;6.3;5.0;3.4;;;;2.0;90.0;
78703;SPS30;68034;51.966;5.676;2023-12-20T07:19:13;6.3;5.8;4.6;3.1;;;;2.0;92.0;
78703;SPS30;68034;51.966;5.676;2023-12-20T07:21:41;5.3;4.9;3.9;2.7;;;;2.0;93.0;
78703;SPS30;68034;51.966;5.676;2023-12-20T07:24:14;6.1;5.6;4.5;3.1;;;;2.0;92.0;
78703;SPS30;68034;51.966;5.676;2023-12-20T07:26:43;5.6;5.2;4.2;2.9;;;;2.0;90.0;
78703;SPS30;68034;51.966;5.676;2023-12-20T07:29:11;5.3;4.9;3.9;2.6;;;;2.0;83.0;
78703;SPS30;68034;51.966;5.676;2023-12-20T07:31:42;8.0;7.3;5.7;3.6;;;;2.0;83.0;
78703;SPS30;68034;51.966;5.676;2023-12-20T07:34:11;5.7;5.1;4.0;2.6;;;;2.0;82.0;
78703;SPS30;68034;51.966;5.676;2023-12-20T07:36:39;6.4;5.8;4.6;3.0;;;;2.0;78.0;
78703;SPS30;68034;51.966;5.676;2023-12-20T07:39:08;7.3;6.7;5.3;3.5;;;;2.0;78.0;
78703;SPS30;68034;51.966;5.676;2023-12-20T07:41:37;6.8;6.2;5.0;3.4;;;;2.0;84.0;
78703;SPS30;68034;51.966;5.676;2023-12-20T07:44:06;5.9;5.4;4.4;3.0;;;;2.0;84.0;
78703;SPS30;68034;51.966;5.676;2023-12-20T07:46:37;5.5;5.0;4.0;2.7;;;;2.0;108.0;
78703;SPS30;68034;51.966;5.676;2023-12-20T07:49:05;6.5;6.0;4.8;3.2;;;;2.0;103.0;
78703;SPS30;68034;51.966;5.676;2023-12-20T07:51:34;6.6;6.0;4.8;3.2;;;;2.0;99.0;
78703;SPS30;68034;51.966;5.676;2023-12-20T07:54:03;6.2;5.7;4.6;3.2;;;;2.0;95.0;
78703;SPS30;68034;51.966;5.676;2023-12-20T07:56:34;6.3;5.8;4.6;3.1;;;;2.0;129.0;
78703;SPS30;68034;51.966;5.676;2023-12-20T07:59:02;7.4;6.8;5.4;3.5;;;;2.0;114.0;
78703;SPS30;68034;51.966;5.676;2023-12-20T08:01:31;5.8;5.3;4.3;3.0;;;;2.0;88.0;
78703;SPS30;68034;51.966;5.676;2023-12-20T08:04:00;6.4;5.8;4.6;3.1;;;;2.0;84.0;
78703;SPS30;68034;51.966;5.676;2023-12-20T08:06:28;8.1;7.3;5.7;3.5;;;;2.0;85.0;
78703;SPS30;68034;51.966;5.676;2023-12-20T08:08:57;6.5;5.9;4.6;2.9;;;;2.0;83.0;
78703;SPS30;68034;51.966;5.676;2023-12-20T08:11:25;5.9;5.4;4.4;3.0;;;;2.0;83.0;
78703;SPS30;68034;51.966;5.676;2023-12-20T08:13:54;6.5;6.0;4.8;3.3;;;;2.0;85.0;
78703;SPS30;68034;51.966;5.676;2023-12-20T08:16:23;6.0;5.5;4.5;3.1;;;;2.0;83.0;
78703;SPS30;68034;51.966;5.676;2023-12-20T08:18:51;5.4;4.9;4.0;2.8;;;;2.0;80.0;
78703;SPS30;68034;51.966;5.676;2023-12-20T08:21:20;6.1;5.7;4.6;3.1;;;;2.0;81.0;
78703;SPS30;68034;51.966;5.676;2023-12-20T08:23:49;6.4;5.8;4.7;3.2;;;;2.0;80.0;
78703;SPS30;68034;51.966;5.676;2023-12-20T08:26:20;7.3;6.7;5.2;3.4;;;;2.0;82.0;
78703;SPS30;68034;51.966;5.676;2023-12-20T08:28:51;7.6;6.9;5.5;3.5;;;;2.0;82.0;
78703;SPS30;68034;51.966;5.676;2023-12-20T08:31:19;6.8;6.2;4.9;3.2;;;;2.0;83.0;
78703;SPS30;68034;51.966;5.676;2023-12-20T08:33:49;6.9;6.3;4.9;3.1;;;;2.0;77.0;
78703;SPS30;68034;51.966;5.676;2023-12-20T08:36:19;6.1;5.5;4.3;2.7;;;;2.0;74.0;
78703;SPS30;68034;51.966;5.676;2023-12-20T08:38:50;5.1;4.6;3.7;2.4;;;;2.0;70.0;
78703;SPS30;68034;51.966;5.676;2023-12-20T08:41:19;7.2;6.6;5.2;3.3;;;;2.0;70.0;
78703;SPS30;68034;51.966;5.676;2023-12-20T08:43:48;6.8;6.1;4.7;2.9;;;;2.0;71.0;
78703;SPS30;68034;51.966;5.676;2023-12-20T08:46:17;7.8;7.0;5.3;3.1;;;;2.0;70.0;
78703;SPS30;68034;51.966;5.676;2023-12-20T08:48:45;6.3;5.7;4.4;2.7;;;;2.0;74.0;
78703;SPS30;68034;51.966;5.676;2023-12-20T08:51:14;7.9;7.1;5.5;3.3;;;;2.0;78.0;
78703;SPS30;68034;51.966;5.676;2023-12-20T08:53:43;6.1;5.5;4.3;2.6;;;;2.0;76.0;
78703;SPS30;68034;51.966;5.676;2023-12-20T08:56:13;8.2;7.4;5.7;3.5;;;;2.0;73.0;
78703;SPS30;68034;51.966;5.676;2023-12-20T08:58:44;7.4;6.7;5.1;3.1;;;;2.0;74.0;
78703;SPS30;68034;51.966;5.676;2023-12-20T09:01:13;7.9;7.1;5.4;3.2;;;;2.0;72.0;
78703;SPS30;68034;51.966;5.676;2023-12-20T09:03:42;7.8;7.0;5.3;3.1;;;;2.0;71.0;
78703;SPS30;68034;51.966;5.676;2023-12-20T09:06:13;7.4;6.7;5.2;3.1;;;;2.0;71.0;
78703;SPS30;68034;51.966;5.676;2023-12-20T09:08:42;6.7;6.1;4.8;3.0;;;;2.0;69.0;
78703;SPS30;68034;51.966;5.676;2023-12-20T09:11:10;7.0;6.3;4.9;3.0;;;;2.0;83.0;
78703;SPS30;68034;51.966;5.676;2023-12-20T09:13:40;6.8;6.1;4.7;2.7;;;;2.0;88.0;
78703;SPS30;68034;51.966;5.676;2023-12-20T09:16:08;6.9;6.2;4.7;2.8;;;;2.0;87.0;
78703;SPS30;68034;51.966;5.676;2023-12-20T09:18:39;7.3;6.6;5.2;3.2;;;;2.0;85.0;
78703;SPS30;68034;51.966;5.676;2023-12-20T09:21:07;7.0;6.3;4.9;3.1;;;;2.0;85.0;
78703;SPS30;68034;51.966;5.676;2023-12-20T09:23:36;7.0;6.3;4.9;3.0;;;;2.0;86.0;
78703;SPS30;68034;51.966;5.676;2023-12-20T09:26:05;7.4;6.7;5.2;3.1;;;;2.0;86.0;
78703;SPS30;68034;51.966;5.676;2023-12-20T09:28:33;6.1;5.5;4.3;2.7;;;;2.0;87.0;
78703;SPS30;68034;51.966;5.676;2023-12-20T09:31:03;8.6;7.7;5.8;3.4;;;;2.0;120.0;
78703;SPS30;68034;51.966;5.676;2023-12-20T09:33:32;7.6;6.9;5.3;3.2;;;;2.0;101.0;
78703;SPS30;68034;51.966;5.676;2023-12-20T09:36:01;6.8;6.1;4.7;2.8;;;;2.0;94.0;
78703;SPS30;68034;51.966;5.676;2023-12-20T09:38:30;6.9;6.2;4.7;2.8;;;;2.0;91.0;
78703;SPS30;68034;51.966;5.676;2023-12-20T09:40:59;7.1;6.4;5.0;3.2;;;;2.0;91.0;
78703;SPS30;68034;51.966;5.676;2023-12-20T09:43:30;6.4;5.9;4.6;2.9;;;;2.0;94.0;
78703;SPS30;68034;51.966;5.676;2023-12-20T09:45:59;6.0;5.5;4.5;3.0;;;;2.0;94.0;
78703;SPS30;68034;51.966;5.676;2023-12-20T09:48:30;5.7;5.2;4.1;2.7;;;;2.0;95.0;
78703;SPS30;68034;51.966;5.676;2023-12-20T09:51:01;5.6;5.1;4.1;2.7;;;;2.0;97.0;
78703;SPS30;68034;51.966;5.676;2023-12-20T09:53:29;6.4;5.8;4.6;2.9;;;;2.0;102.0;
78703;SPS30;68034;51.966;5.676;2023-12-20T09:56:05;7.5;6.8;5.3;3.3;;;;2.0;98.0;
78703;SPS30;68034;51.966;5.676;2023-12-20T09:58:37;7.5;6.8;5.4;3.5;;;;2.0;99.0;
78703;SPS30;68034;51.966;5.676;2023-12-20T10:01:07;6.2;5.6;4.4;2.8;;;;2.0;88.0;
78703;SPS30;68034;51.966;5.676;2023-12-20T10:03:36;5.6;5.1;4.0;2.6;;;;2.0;90.0;
78703;SPS30;68034;51.966;5.676;2023-12-20T10:06:09;7.5;6.8;5.3;3.4;;;;2.0;102.0;
78703;SPS30;68034;51.966;5.676;2023-12-20T10:08:38;6.4;5.9;4.7;3.1;;;;2.0;98.0;
78703;SPS30;68034;51.966;5.676;2023-12-20T10:11:07;6.6;6.0;4.7;2.9;;;;2.0;95.0;
78703;SPS30;68034;51.966;5.676;2023-12-20T10:13:36;6.8;6.2;4.9;3.1;;;;2.0;95.0;
78703;SPS30;68034;51.966;5.676;2023-12-20T10:16:07;6.2;5.6;4.5;2.9;;;;2.0;95.0;
78703;SPS30;68034;51.966;5.676;2023-12-20T10:18:36;6.3;5.7;4.4;2.8;;;;2.0;100.0;
78703;SPS30;68034;51.966;5.676;2023-12-20T10:21:05;5.6;5.1;4.1;2.7;;;;2.0;98.0;
78703;SPS30;68034;51.966;5.676;2023-12-20T10:23:36;6.1;5.5;4.5;3.0;;;;2.0;95.0;
78703;SPS30;68034;51.966;5.676;2023-12-20T10:26:06;5.2;4.8;3.9;2.7;;;;2.0;94.0;
78703;SPS30;68034;51.966;5.676;2023-12-20T10:28:54;6.6;6.1;4.9;3.4;;;;2.0;97.0;
78703;SPS30;68034;51.966;5.676;2023-12-20T10:31:33;6.0;5.5;4.4;3.0;;;;2.0;111.0;
78703;SPS30;68034;51.966;5.676;2023-12-20T10:34:02;5.8;5.3;4.3;2.9;;;;2.0;107.0;
78703;SPS30;68034;51.966;5.676;2023-12-20T10:36:32;5.3;4.9;3.9;2.6;;;;2.0;89.0;
78703;SPS30;68034;51.966;5.676;2023-12-20T10:39:02;6.0;5.5;4.4;2.9;;;;1.0;91.0;
78703;SPS30;68034;51.966;5.676;2023-12-20T10:41:32;6.1;5.6;4.5;3.1;;;;1.0;111.0;
78703;SPS30;68034;51.966;5.676;2023-12-20T10:44:06;5.0;4.7;3.9;2.8;;;;1.0;119.0;
78703;SPS30;68034;51.966;5.676;2023-12-20T10:46:37;6.1;5.6;4.6;3.2;;;;1.0;111.0;
78703;SPS30;68034;51.966;5.676;2023-12-20T10:49:13;5.9;5.4;4.3;2.9;;;;1.0;101.0;
78703;SPS30;68034;51.966;5.676;2023-12-20T10:51:46;4.5;4.2;3.4;2.4;;;;1.0;94.0;
78703;SPS30;68034;51.966;5.676;2023-12-20T10:54:18;4.8;4.4;3.6;2.4;;;;1.0;94.0;
78703;SPS30;68034;51.966;5.676;2023-12-20T10:56:48;5.4;5.0;4.1;2.9;;;;1.0;90.0;
78703;SPS30;68034;51.966;5.676;2023-12-20T10:59:20;5.1;4.7;3.9;2.8;;;;1.0;83.0;
78703;SPS30;68034;51.966;5.676;2023-12-20T11:01:52;4.9;4.6;3.8;2.8;;;;1.0;112.0;
78703;SPS30;68034;51.966;5.676;2023-12-20T11:04:25;5.5;5.1;4.2;3.0;;;;1.0;97.0;
78703;SPS30;68034;51.966;5.676;2023-12-20T11:07:04;4.5;4.1;3.3;2.2;;;;1.0;78.0;
78703;SPS30;68034;51.966;5.676;2023-12-20T11:09:45;6.1;5.6;4.5;3.1;;;;1.0;79.0;
78703;SPS30;68034;51.966;5.676;2023-12-20T11:12:28;6.5;6.0;4.9;3.4;;;;1.0;74.0;
78703;SPS30;68034;51.966;5.676;2023-12-20T11:15:06;5.0;4.6;3.7;2.5;;;;1.0;73.0;
78703;SPS30;68034;51.966;5.676;2023-12-20T11:17:35;5.4;4.9;4.0;2.7;;;;1.0;69.0;
78703;SPS30;68034;51.966;5.676;2023-12-20T11:20:12;5.3;4.9;4.1;2.9;;;;1.0;71.0;
78703;SPS30;68034;51.966;5.676;2023-12-20T11:22:51;5.4;5.0;4.0;2.7;;;;1.0;73.0;
78703;SPS30;68034;51.966;5.676;2023-12-20T11:25:22;5.7;5.2;4.3;2.9;;;;1.0;76.0;
78703;SPS30;68034;51.966;5.676;2023-12-20T11:28:08;5.8;5.3;4.2;2.8;;;;1.0;93.0;
78703;SPS30;68034;51.966;5.676;2023-12-20T11:30:48;6.9;6.3;4.9;3.2;;;;1.0;79.0;
78703;SPS30;68034;51.966;5.676;2023-12-20T11:33:18;5.6;5.1;4.1;2.7;;;;1.0;73.0;
78703;SPS30;68034;51.966;5.676;2023-12-20T11:35:50;5.2;4.7;3.8;2.5;;;;1.0;66.0;
78703;SPS30;68034;51.966;5.676;2023-12-20T11:38:23;5.8;5.3;4.2;2.8;;;;1.0;68.0;
78703;SPS30;68034;51.966;5.676;2023-12-20T11:40:53;5.8;5.4;4.3;2.9;;;;1.0;69.0;
78703;SPS30;68034;51.966;5.676;2023-12-20T11:43:34;6.3;5.8;4.6;3.1;;;;1.0;65.0;
78703;SPS30;68034;51.966;5.676;2023-12-20T11:46:04;6.4;5.9;4.7;3.1;;;;1.0;63.0;
78703;SPS30;68034;51.966;5.676;2023-12-20T11:48:34;4.7;4.3;3.4;2.2;;;;1.0;61.0;
78703;SPS30;68034;51.966;5.676;2023-12-20T11:51:10;5.7;5.2;4.1;2.6;;;;1.0;76.0;
78703;SPS30;68034;51.966;5.676;2023-12-20T11:53:40;5.0;4.6;3.7;2.5;;;;1.0;83.0;
78703;SPS30;68034;51.966;5.676;2023-12-20T11:56:09;5.4;5.0;4.0;2.7;;;;1.0;77.0;
78703;SPS30;68034;51.966;5.676;2023-12-20T11:58:38;4.4;4.1;3.3;2.2;;;;1.0;53.0;
78703;SPS30;68034;51.966;5.676;2023-12-20T12:01:07;5.5;5.1;4.1;2.7;;;;1.0;56.0;
78703;SPS30;68034;51.966;5.676;2023-12-20T12:03:37;5.2;4.8;3.9;2.6;;;;1.0;57.0;
78703;SPS30;68034;51.966;5.676;2023-12-20T12:06:06;4.6;4.2;3.5;2.4;;;;1.0;62.0;
78703;SPS30;68034;51.966;5.676;2023-12-20T12:08:34;5.8;5.3;4.3;2.9;;;;1.0;67.0;
78703;SPS30;68034;51.966;5.676;2023-12-20T12:11:04;3.8;3.5;2.8;1.9;;;;1.0;65.0;
78703;SPS30;68034;51.966;5.676;2023-12-20T12:13:33;5.0;4.6;3.7;2.5;;;;1.0;70.0;
78703;SPS30;68034;51.966;5.676;2023-12-20T12:16:02;4.1;3.8;3.1;2.1;;;;1.0;75.0;
78703;SPS30;68034;51.966;5.676;2023-12-20T12:18:32;6.3;5.7;4.6;2.9;;;;1.0;79.0;
78703;SPS30;68034;51.966;5.676;2023-12-20T12:21:02;5.3;4.8;3.8;2.5;;;;1.0;80.0;
78703;SPS30;68034;51.966;5.676;2023-12-20T12:23:31;6.4;5.8;4.5;2.9;;;;1.0;77.0;